Time;durP1;ratioP1;P1;durP2;ratioP2;P2;SDS_P1;SDS_P2;PMS_P1;PMS_P2;Temp;Humidity;BMP_temperature;BMP_pressure;BME280_temperature;BME280_humidity;BME280_pressure;Samples;Min_cycle;Max_cycle;Signal;HPM_P1;HPM_P2
2022/12/31 00:00:35;;;;;;;2.80;0.77;;;18.10;76.10;;;;;;2554495;54;21853;-86
2022/12/31 00:03:01;;;;;;;1.48;0.68;;;18.10;76.00;;;;;;2553907;54;21074;-86
2022/12/31 00:05:30;;;;;;;1.67;0.70;;;18.10;76.00;;;;;;2554052;54;22045;-86
2022/12/31 00:07:56;;;;;;;1.52;0.50;;;18.10;75.80;;;;;;2309967;54;20983;-86
2022/12/31 00:10:23;;;;;;;2.03;0.70;;;18.10;76.10;;;;;;2552729;53;20911;-87
2022/12/31 00:12:49;;;;;;;1.77;0.57;;;18.10;75.90;;;;;;2315578;54;20967;-87
2022/12/31 00:15:16;;;;;;;2.17;0.85;;;18.20;75.90;;;;;;2315174;54;20971;-87
2022/12/31 00:17:42;;;;;;;1.23;0.57;;;18.20;75.90;;;;;;2314978;54;20923;-88
2022/12/31 00:20:09;;;;;;;0.98;0.50;;;18.20;75.90;;;;;;2314500;54;20924;-86
2022/12/31 00:22:35;;;;;;;1.77;0.75;;;18.20;75.90;;;;;;2316619;54;20955;-87
2022/12/31 00:25:02;;;;;;;1.23;0.60;;;18.20;75.80;;;;;;2554095;53;20987;-87
2022/12/31 00:27:32;;;;;;;1.45;0.60;;;18.20;75.90;;;;;;2555184;53;20966;-87
2022/12/31 00:29:58;;;;;;;2.35;0.77;;;18.20;75.60;;;;;;2555434;53;21881;-86
2022/12/31 00:32:28;;;;;;;1.70;0.70;;;18.20;75.80;;;;;;2320280;54;20968;-88
2022/12/31 00:34:54;;;;;;;1.27;0.60;;;18.30;75.90;;;;;;2555283;53;20915;-87
2022/12/31 00:37:20;;;;;;;1.48;0.50;;;18.30;75.80;;;;;;2555504;53;20947;-86
2022/12/31 00:39:48;;;;;;;1.80;0.50;;;18.30;75.80;;;;;;2555456;53;20958;-86
2022/12/31 00:42:14;;;;;;;1.62;0.62;;;18.30;75.90;;;;;;2317683;54;21019;-88
2022/12/31 00:44:40;;;;;;;2.72;0.80;;;18.30;75.80;;;;;;2555687;53;21227;-87
2022/12/31 00:47:07;;;;;;;1.40;0.65;;;18.30;75.70;;;;;;2554635;53;20983;-87
2022/12/31 00:49:34;;;;;;;1.85;0.62;;;18.40;75.60;;;;;;2554632;53;21899;-88
2022/12/31 00:52:00;;;;;;;1.62;0.60;;;18.40;75.70;;;;;;2555400;53;20943;-86
2022/12/31 00:54:26;;;;;;;1.45;0.50;;;18.40;75.70;;;;;;2290811;55;21100;-87
2022/12/31 00:56:52;;;;;;;2.58;0.70;;;18.40;75.60;;;;;;2290828;55;20926;-87
2022/12/31 00:59:19;;;;;;;1.85;0.70;;;18.40;75.60;;;;;;2522466;54;21013;-86
2022/12/31 01:01:45;;;;;;;1.90;0.70;;;18.40;75.50;;;;;;2523042;54;20934;-87
2022/12/31 01:04:14;;;;;;;1.23;0.52;;;18.40;75.40;;;;;;2523435;54;20945;-87
2022/12/31 01:06:40;;;;;;;2.25;0.70;;;18.40;75.20;;;;;;2290737;55;21550;-87
2022/12/31 01:09:07;;;;;;;2.47;0.60;;;18.40;75.20;;;;;;2523242;54;20997;-89
2022/12/31 01:11:33;;;;;;;2.03;0.70;;;18.40;75.20;;;;;;2522799;54;21049;-86
2022/12/31 01:14:01;;;;;;;1.60;0.57;;;18.40;75.20;;;;;;2289992;55;20985;-86
2022/12/31 01:16:41;;;;;;;0.88;0.40;;;18.40;75.20;;;;;;2312362;54;21255;-86
2022/12/31 01:19:09;;;;;;;2.30;0.60;;;18.40;74.10;;;;;;2554939;53;21611;-86
2022/12/31 01:21:37;;;;;;;1.52;0.70;;;18.40;75.00;;;;;;2316905;54;20875;-86
2022/12/31 01:24:04;;;;;;;1.48;0.70;;;18.40;74.90;;;;;;2556309;53;21078;-85
2022/12/31 01:26:30;;;;;;;2.87;1.23;;;18.50;75.10;;;;;;2554937;53;20967;-87
2022/12/31 01:28:56;;;;;;;1.23;0.60;;;18.40;75.10;;;;;;2554959;53;20967;-87
2022/12/31 01:31:23;;;;;;;0.80;0.47;;;18.50;75.20;;;;;;2555322;53;20902;-86
2022/12/31 01:33:50;;;;;;;2.83;0.98;;;18.50;75.20;;;;;;2316878;54;20908;-88
2022/12/31 01:36:24;;;;;;;3.17;0.52;;;18.50;75.20;;;;;;2557429;53;21054;-86
2022/12/31 01:38:52;;;;;;;1.10;0.47;;;18.50;75.50;;;;;;2556970;53;20939;-88
2022/12/31 01:41:21;;;;;;;1.10;0.47;;;18.50;75.30;;;;;;2555616;53;20959;-87
2022/12/31 01:43:55;;;;;;;1.40;0.60;;;18.50;75.40;;;;;;2556844;53;20964;-85
2022/12/31 01:46:35;;;;;;;1.35;0.50;;;18.50;74.80;;;;;;2555311;53;21078;-87
2022/12/31 01:49:53;;;;;;;2.10;0.68;;;18.60;75.30;;;;;;2523110;54;21143;-87
2022/12/31 01:52:26;;;;;;;1.62;0.70;;;18.60;74.30;;;;;;2555490;53;20943;-86
2022/12/31 01:54:59;;;;;;;2.83;0.80;;;18.60;75.60;;;;;;2317783;54;20927;-87
2022/12/31 01:57:26;;;;;;;1.10;0.50;;;18.60;75.40;;;;;;2556400;53;20884;-87
2022/12/31 01:59:52;;;;;;;1.42;0.60;;;18.70;75.40;;;;;;2317713;54;22084;-88
2022/12/31 02:02:19;;;;;;;1.40;0.60;;;18.70;75.40;;;;;;2556214;53;21003;-88
2022/12/31 02:04:45;;;;;;;1.42;0.50;;;18.70;75.50;;;;;;2317704;54;20888;-87
2022/12/31 02:07:11;;;;;;;1.27;0.50;;;18.70;75.50;;;;;;2558367;53;21043;-86
2022/12/31 02:09:39;;;;;;;0.73;0.35;;;18.70;75.60;;;;;;2320689;54;20987;-86
2022/12/31 02:12:05;;;;;;;3.25;0.68;;;18.70;75.20;;;;;;2321111;54;21014;-88
2022/12/31 02:14:35;;;;;;;1.20;0.50;;;18.70;75.30;;;;;;2560856;53;20975;-85
2022/12/31 02:17:59;;;;;;;2.17;0.55;;;18.80;75.20;;;;;;2325470;53;20946;-85
2022/12/31 02:23:57;;;;;;;1.27;0.50;;;18.80;73.50;;;;;;2563038;53;20927;-85
2022/12/31 02:26:56;;;;;;;2.20;0.50;;;18.80;73.80;;;;;;2562854;53;20932;-84
2022/12/31 02:29:59;;;;;;;2.28;0.50;;;18.80;74.10;;;;;;2324136;54;20974;-84
2022/12/31 02:34:38;;;;;;;3.20;0.60;;;18.80;74.10;;;;;;2563201;53;21661;-85
2022/12/31 02:37:07;;;;;;;2.50;0.50;;;18.80;74.00;;;;;;2563288;53;20927;-84
2022/12/31 02:39:34;;;;;;;1.60;0.65;;;18.80;75.50;;;;;;2563131;53;20963;-83
2022/12/31 02:42:00;;;;;;;3.35;1.00;;;18.80;75.40;;;;;;2324473;53;20975;-83
2022/12/31 02:44:28;;;;;;;2.37;0.88;;;18.90;75.60;;;;;;2563256;53;20983;-84
2022/12/31 02:50:23;;;;;;;2.90;0.90;;;18.90;75.60;;;;;;2563236;53;20978;-84
2022/12/31 02:53:40;;;;;;;2.37;0.60;;;18.90;74.00;;;;;;2324506;53;21853;-87
2022/12/31 02:56:12;;;;;;;1.85;0.70;;;18.90;75.30;;;;;;2562988;53;20959;-85
2022/12/31 03:04:30;;;;;;;3.20;1.25;;;19.00;74.00;;;;;;2563114;53;21022;-85
2022/12/31 03:06:59;;;;;;;4.60;1.35;;;19.00;75.60;;;;;;2563225;53;20967;-85
2022/12/31 03:09:26;;;;;;;2.12;0.90;;;19.00;75.20;;;;;;2563114;53;20991;-85
2022/12/31 03:14:43;;;;;;;3.22;0.95;;;19.00;75.50;;;;;;2531528;54;21469;-85
2022/12/31 03:17:10;;;;;;;3.03;1.30;;;19.10;75.50;;;;;;2297342;55;21020;-86
2022/12/31 03:22:27;;;;;;;3.80;1.70;;;19.00;75.60;;;;;;2531082;54;21849;-85
2022/12/31 03:27:58;;;;;;;3.78;1.85;;;19.00;73.80;;;;;;2530967;54;20925;-86
2022/12/31 03:30:24;;;;;;;3.70;1.50;;;19.00;75.40;;;;;;2297313;55;20960;-86
2022/12/31 03:32:51;;;;;;;3.05;1.37;;;19.00;75.30;;;;;;2531836;54;20929;-86
2022/12/31 03:35:19;;;;;;;3.20;1.30;;;19.00;75.40;;;;;;2530791;54;20953;-86
2022/12/31 03:37:45;;;;;;;2.50;1.00;;;19.00;75.30;;;;;;2531460;54;21246;-86
2022/12/31 03:40:12;;;;;;;2.28;1.00;;;19.00;75.40;;;;;;2296848;55;20957;-87
2022/12/31 03:42:38;;;;;;;2.97;1.20;;;19.00;75.50;;;;;;2297619;55;21778;-87
2022/12/31 03:45:05;;;;;;;1.67;0.90;;;19.00;75.40;;;;;;2531872;54;20989;-86
2022/12/31 03:47:32;;;;;;;2.60;0.95;;;19.00;75.50;;;;;;2297853;55;20925;-86
2022/12/31 03:49:58;;;;;;;2.42;1.10;;;19.00;75.40;;;;;;2297382;55;21023;-87
2022/12/31 03:52:24;;;;;;;2.30;1.12;;;19.00;75.30;;;;;;2297674;55;20908;-87
2022/12/31 03:54:51;;;;;;;2.92;1.00;;;19.00;75.30;;;;;;2531222;54;20976;-85
2022/12/31 03:57:18;;;;;;;2.47;1.23;;;19.00;75.30;;;;;;2530381;54;20975;-86
2022/12/31 03:59:44;;;;;;;2.72;1.10;;;19.00;75.20;;;;;;2297096;55;21036;-87
2022/12/31 04:02:10;;;;;;;3.50;1.00;;;19.00;75.20;;;;;;2296573;55;20991;-86
2022/12/31 04:04:36;;;;;;;2.53;1.12;;;19.00;75.20;;;;;;2297297;55;20987;-86
2022/12/31 04:07:03;;;;;;;6.07;1.30;;;19.00;75.30;;;;;;2497998;54;20954;-86
2022/12/31 04:09:30;;;;;;;2.70;1.20;;;19.00;75.30;;;;;;2562228;53;21034;-86
2022/12/31 04:11:57;;;;;;;3.37;1.00;;;19.00;75.20;;;;;;2531987;54;20967;-85
2022/12/31 04:14:23;;;;;;;2.10;0.90;;;19.00;75.20;;;;;;2323762;54;20959;-84
2022/12/31 04:16:49;;;;;;;2.47;1.00;;;19.00;75.20;;;;;;2324262;54;20939;-86
2022/12/31 04:19:16;;;;;;;2.08;0.80;;;19.00;75.20;;;;;;2562627;53;20991;-85
2022/12/31 04:21:42;;;;;;;2.50;0.98;;;19.00;75.10;;;;;;2563265;53;20927;-84
2022/12/31 04:24:08;;;;;;;1.75;0.90;;;19.00;75.20;;;;;;2563358;53;21436;-86
2022/12/31 04:26:35;;;;;;;2.12;0.80;;;19.00;75.00;;;;;;2563606;53;21423;-84
2022/12/31 04:29:02;;;;;;;1.98;0.73;;;19.00;74.90;;;;;;2323710;54;20912;-86
2022/12/31 04:31:28;;;;;;;1.75;0.80;;;19.00;74.80;;;;;;2563071;53;20950;-88
2022/12/31 04:33:54;;;;;;;1.98;0.90;;;18.90;74.70;;;;;;2563572;53;21120;-86
2022/12/31 04:36:20;;;;;;;2.53;0.82;;;18.90;74.70;;;;;;2562464;53;20927;-84
2022/12/31 04:38:47;;;;;;;1.95;0.82;;;18.90;74.60;;;;;;2562779;53;21492;-84
2022/12/31 04:41:16;;;;;;;2.40;0.75;;;19.00;74.80;;;;;;2323109;54;21600;-87
2022/12/31 04:43:50;;;;;;;1.73;0.77;;;18.90;74.70;;;;;;2323914;54;20915;-85
2022/12/31 04:46:19;;;;;;;1.40;0.70;;;18.90;74.20;;;;;;2323455;54;20964;-85
2022/12/31 04:48:45;;;;;;;2.17;0.80;;;18.80;74.60;;;;;;2562678;53;20935;-85
2022/12/31 04:51:11;;;;;;;2.85;1.00;;;18.80;74.60;;;;;;2323559;54;20983;-87
2022/12/31 04:53:38;;;;;;;1.62;0.65;;;18.80;74.70;;;;;;2323759;54;20980;-87
2022/12/31 04:56:05;;;;;;;1.58;0.60;;;18.80;74.80;;;;;;2540761;53;20947;-86
2022/12/31 04:58:31;;;;;;;1.37;0.68;;;18.80;74.70;;;;;;2553057;53;21089;-85
2022/12/31 05:00:57;;;;;;;1.42;0.60;;;18.80;74.60;;;;;;2323216;54;20923;-85
2022/12/31 05:03:24;;;;;;;1.62;0.65;;;18.80;74.80;;;;;;2562575;53;20923;-85
2022/12/31 05:05:50;;;;;;;1.60;0.68;;;18.80;74.70;;;;;;2563027;53;20911;-84
2022/12/31 05:08:17;;;;;;;1.60;0.60;;;18.80;74.70;;;;;;2562433;53;21785;-86
2022/12/31 05:10:44;;;;;;;2.92;1.05;;;18.80;74.80;;;;;;2562435;53;21290;-85
2022/12/31 05:13:11;;;;;;;1.35;0.60;;;18.70;74.70;;;;;;2562834;53;21724;-84
2022/12/31 05:15:38;;;;;;;1.92;0.70;;;18.80;74.70;;;;;;2562914;53;20991;-85
2022/12/31 05:18:05;;;;;;;1.98;0.70;;;18.80;74.50;;;;;;2563123;53;20954;-86
2022/12/31 05:20:31;;;;;;;1.85;0.70;;;18.80;75.30;;;;;;2323325;54;21019;-86
2022/12/31 05:22:58;;;;;;;2.45;0.68;;;18.70;74.60;;;;;;2563288;53;21125;-86
2022/12/31 05:25:24;;;;;;;0.98;0.50;;;18.70;74.50;;;;;;2561856;53;20908;-85
2022/12/31 05:27:52;;;;;;;1.50;0.57;;;18.70;74.50;;;;;;2324669;54;20983;-86
2022/12/31 05:30:18;;;;;;;0.93;0.50;;;18.70;74.60;;;;;;2562275;53;20887;-86
2022/12/31 05:32:45;;;;;;;1.50;0.62;;;18.70;74.60;;;;;;2563184;53;20943;-85
2022/12/31 05:35:11;;;;;;;1.30;0.70;;;18.70;74.60;;;;;;2562976;53;20975;-86
2022/12/31 05:37:38;;;;;;;1.83;0.60;;;18.70;74.70;;;;;;2324444;54;20912;-86
2022/12/31 05:40:05;;;;;;;1.17;0.50;;;18.70;74.60;;;;;;2563000;53;20896;-84
2022/12/31 05:42:31;;;;;;;2.05;0.65;;;18.70;74.70;;;;;;2563262;53;20928;-84
2022/12/31 05:44:57;;;;;;;1.25;0.47;;;18.60;74.70;;;;;;2325213;54;20974;-84
2022/12/31 05:47:23;;;;;;;1.08;0.47;;;18.60;74.70;;;;;;2304098;55;20921;-84
2022/12/31 05:49:50;;;;;;;2.17;0.70;;;18.70;74.90;;;;;;2324738;54;20911;-86
2022/12/31 05:52:16;;;;;;;1.55;0.60;;;18.60;74.70;;;;;;2563923;53;21434;-84
2022/12/31 05:54:42;;;;;;;1.30;0.50;;;18.60;74.70;;;;;;2324765;54;20888;-86
2022/12/31 05:57:09;;;;;;;0.70;0.37;;;18.60;74.70;;;;;;2325123;54;20979;-86
2022/12/31 05:59:35;;;;;;;1.65;0.60;;;18.60;74.80;;;;;;2563776;53;21023;-84
2022/12/31 06:02:01;;;;;;;1.35;0.50;;;18.60;74.80;;;;;;2563663;53;20963;-85
2022/12/31 06:04:27;;;;;;;1.60;0.62;;;18.60;74.90;;;;;;2563332;53;20951;-84
2022/12/31 06:06:54;;;;;;;3.47;0.55;;;18.60;74.90;;;;;;2324116;54;20955;-85
2022/12/31 06:09:20;;;;;;;2.92;0.40;;;18.60;74.90;;;;;;2562491;53;21463;-87
2022/12/31 06:11:46;;;;;;;1.15;0.40;;;18.60;74.90;;;;;;2323694;54;21257;-86
2022/12/31 06:14:13;;;;;;;1.33;0.52;;;18.60;74.90;;;;;;2562384;53;21050;-86
2022/12/31 06:16:39;;;;;;;1.48;0.60;;;18.60;74.90;;;;;;2563054;53;20947;-84
2022/12/31 06:19:06;;;;;;;2.65;0.50;;;18.60;74.80;;;;;;2562474;53;20938;-85
2022/12/31 06:21:33;;;;;;;1.33;0.50;;;18.60;74.90;;;;;;2323827;54;21002;-86
2022/12/31 06:24:00;;;;;;;0.80;0.47;;;18.60;74.90;;;;;;2562188;53;21559;-84
2022/12/31 06:26:26;;;;;;;1.23;0.50;;;18.60;74.90;;;;;;2562399;53;20987;-86
2022/12/31 06:28:53;;;;;;;1.80;0.50;;;18.60;74.90;;;;;;2562862;53;21014;-86
2022/12/31 06:31:19;;;;;;;1.25;0.40;;;18.60;74.90;;;;;;2562250;53;20927;-85
2022/12/31 06:33:48;;;;;;;1.75;0.50;;;18.60;74.90;;;;;;2323613;54;21039;-87
2022/12/31 06:36:14;;;;;;;1.15;0.40;;;18.60;74.90;;;;;;2562544;53;20928;-86
2022/12/31 06:38:41;;;;;;;1.50;0.60;;;18.60;74.90;;;;;;2323833;54;20999;-86
2022/12/31 06:41:11;;;;;;;2.17;0.52;;;18.60;74.80;;;;;;2323074;54;21833;-86
2022/12/31 06:43:37;;;;;;;1.40;0.50;;;18.60;74.80;;;;;;2562727;53;20923;-85
2022/12/31 06:46:04;;;;;;;1.50;0.57;;;18.60;74.90;;;;;;2323543;54;20962;-85
2022/12/31 06:48:31;;;;;;;1.08;0.43;;;18.60;74.90;;;;;;2561610;53;20919;-85
2022/12/31 06:51:03;;;;;;;1.70;0.47;;;18.60;75.00;;;;;;2562301;53;20923;-86
2022/12/31 06:53:29;;;;;;;1.87;0.50;;;18.60;74.40;;;;;;2562730;53;20939;-85
2022/12/31 06:55:55;;;;;;;1.67;0.62;;;18.60;74.90;;;;;;2323469;54;20907;-85
2022/12/31 06:58:23;;;;;;;1.50;0.47;;;18.60;74.70;;;;;;2545078;53;20936;-85
2022/12/31 07:01:04;;;;;;;1.12;0.50;;;18.70;74.90;;;;;;2548391;53;20919;-84
2022/12/31 07:03:43;;;;;;;1.17;0.50;;;18.70;74.90;;;;;;2323601;54;20939;-86
2022/12/31 07:06:15;;;;;;;1.05;0.50;;;18.70;74.00;;;;;;2561634;53;20923;-85
2022/12/31 07:10:06;;;;;;;1.42;0.50;;;18.70;74.80;;;;;;2324204;54;21062;-87
2022/12/31 07:17:50;;;;;;;1.12;0.50;;;18.70;72.80;;;;;;2561729;53;20931;-85
2022/12/31 07:20:17;;;;;;;0.88;0.40;;;18.80;73.40;;;;;;2299093;55;21434;-85
2022/12/31 07:22:44;;;;;;;1.25;0.50;;;18.80;75.20;;;;;;2297125;55;20985;-85
2022/12/31 07:25:15;;;;;;;1.40;0.50;;;18.70;75.10;;;;;;2295930;55;21905;-85
2022/12/31 07:28:19;;;;;;;1.00;0.43;;;18.80;75.50;;;;;;2324028;54;20919;-86
2022/12/31 07:30:56;;;;;;;1.83;0.60;;;18.80;73.60;;;;;;2279348;55;21526;-87
2022/12/31 07:34:06;;;;;;;1.12;0.43;;;18.70;75.00;;;;;;2530136;54;20941;-84
2022/12/31 07:36:59;;;;;;;1.58;0.62;;;18.80;73.10;;;;;;2529901;54;21069;-85
2022/12/31 07:39:31;;;;;;;1.62;0.45;;;18.80;74.10;;;;;;2529341;54;20957;-85
2022/12/31 07:42:21;;;;;;;1.52;0.60;;;18.80;75.00;;;;;;2530668;54;20949;-86
2022/12/31 07:45:03;;;;;;;1.95;0.60;;;18.80;73.70;;;;;;2300731;54;20988;-84
2022/12/31 07:47:29;;;;;;;4.32;0.62;;;18.80;74.40;;;;;;2297100;53;20962;-86
2022/12/31 07:49:56;;;;;;;0.98;0.45;;;18.80;75.20;;;;;;2530374;53;21521;-85
2022/12/31 07:52:23;;;;;;;2.03;0.60;;;18.80;75.20;;;;;;2530430;53;20949;-84
2022/12/31 07:54:49;;;;;;;1.25;0.50;;;18.80;75.20;;;;;;2531001;53;21045;-84
2022/12/31 07:57:16;;;;;;;1.90;0.60;;;18.80;75.20;;;;;;2530181;53;20982;-85
2022/12/31 08:00:28;;;;;;;0.98;0.50;;;18.90;75.30;;;;;;2322873;54;20952;-86
2022/12/31 08:03:57;;;;;;;2.53;0.77;;;18.90;73.10;;;;;;2562589;53;20907;-86
2022/12/31 08:06:40;;;;;;;1.55;0.60;;;19.00;73.20;;;;;;2562503;53;20923;-85
2022/12/31 08:09:30;;;;;;;;;;;19.00;74.90;;;;;;2566074;53;21034;-86
2022/12/31 08:11:57;;;;;;;3.37;0.77;;;19.00;73.40;;;;;;2562835;53;20060;-84
2022/12/31 08:14:24;;;;;;;0.95;0.43;;;19.00;75.40;;;;;;2322397;54;20928;-85
2022/12/31 08:16:50;;;;;;;2.12;0.60;;;19.00;75.30;;;;;;2323238;54;21737;-86
2022/12/31 08:19:25;;;;;;;1.83;0.55;;;19.00;75.20;;;;;;2561838;53;21498;-85
2022/12/31 08:22:09;;;;;;;3.00;0.88;;;19.10;74.70;;;;;;2321960;54;20938;-84
2022/12/31 08:26:46;;;;;;;1.50;0.70;;;19.10;74.00;;;;;;2314359;54;21010;-84
2022/12/31 08:31:16;;;;;;;1.95;0.68;;;19.20;73.60;;;;;;2526905;54;21014;-83
2022/12/31 08:34:54;;;;;;;1.42;0.50;;;19.20;74.20;;;;;;2553015;53;21026;-81
2022/12/31 08:37:46;;;;;;;1.45;0.50;;;19.30;73.70;;;;;;2318499;54;20971;-82
2022/12/31 08:40:37;;;;;;;1.02;0.40;;;19.30;74.40;;;;;;2312889;54;21478;-82
2022/12/31 08:43:40;;;;;;;1.42;0.60;;;19.30;74.30;;;;;;2318392;54;20984;-83
2022/12/31 08:46:12;;;;;;;1.10;0.50;;;19.30;73.80;;;;;;2557938;53;21479;-82
2022/12/31 08:48:39;;;;;;;1.05;0.50;;;19.30;75.50;;;;;;2547748;53;21026;-85
2022/12/31 08:51:11;;;;;;;0.98;0.40;;;19.40;75.50;;;;;;2546108;53;20935;-86
2022/12/31 08:53:38;;;;;;;1.25;0.60;;;19.40;75.40;;;;;;2562087;53;20919;-83
2022/12/31 08:56:09;;;;;;;0.82;0.40;;;19.40;75.50;;;;;;2562185;53;21785;-84
2022/12/31 09:01:13;;;;;;;1.70;0.50;;;19.40;75.40;;;;;;2323092;54;20907;-83
2022/12/31 09:04:17;;;;;;;2.87;0.52;;;19.50;73.40;;;;;;2323076;54;20926;-83
2022/12/31 09:06:47;;;;;;;;;;;19.60;74.10;;;;;;2559335;54;20938;-84
2022/12/31 09:09:39;;;;;;;1.20;0.40;;;19.60;73.60;;;;;;2323256;55;20135;-85
2022/12/31 09:14:58;;;;;;;0.80;0.40;;;19.60;74.20;;;;;;2563334;54;21818;-84
2022/12/31 09:17:49;;;;;;;2.33;0.40;;;19.60;74.00;;;;;;2323299;55;21910;-85
2022/12/31 09:20:29;;;;;;;0.90;0.45;;;19.70;75.10;;;;;;2323072;55;20942;-84
2022/12/31 09:23:07;;;;;;;1.15;0.50;;;19.70;74.30;;;;;;2563057;54;20915;-83
2022/12/31 09:25:33;;;;;;;1.10;0.47;;;19.70;75.90;;;;;;2563005;54;21043;-83
2022/12/31 09:31:10;;;;;;;1.52;0.47;;;19.70;75.90;;;;;;2324801;55;20945;-83
2022/12/31 09:34:00;;;;;;;1.20;0.40;;;19.90;73.80;;;;;;2562261;54;20943;-83
2022/12/31 09:36:33;;;;;;;1.10;0.47;;;19.90;75.30;;;;;;2304277;55;20985;-85
2022/12/31 09:39:25;;;;;;;1.23;0.40;;;19.90;75.30;;;;;;2562541;54;20966;-83
2022/12/31 09:45:50;;;;;;;1.52;0.60;;;20.00;75.70;;;;;;2562675;54;20927;-86
2022/12/31 09:48:35;;;;;;;1.77;0.60;;;20.00;73.60;;;;;;2322909;55;20934;-86
2022/12/31 09:54:39;;;;;;;1.12;0.43;;;20.00;74.80;;;;;;2305008;55;20918;-85
2022/12/31 10:02:15;;;;;;;1.00;0.50;;;20.20;73.70;;;;;;2562897;54;21773;-86
2022/12/31 10:07:50;;;;;;;1.25;0.50;;;20.20;73.70;;;;;;2322751;55;21312;-85
2022/12/31 10:12:07;;;;;;;1.20;0.47;;;20.30;73.70;;;;;;2560140;54;21551;-85
2022/12/31 10:15:04;;;;;;;1.23;0.50;;;20.30;74.00;;;;;;2560741;54;20938;-82
2022/12/31 10:17:53;;;;;;;1.83;0.55;;;20.30;73.70;;;;;;2558821;54;21054;-82
2022/12/31 10:20:46;;;;;;;1.55;0.50;;;20.30;73.90;;;;;;2559120;54;20962;-81
2022/12/31 10:23:45;;;;;;;1.60;0.50;;;20.30;74.00;;;;;;2559214;54;20966;-83
2022/12/31 10:26:28;;;;;;;1.87;0.57;;;20.40;74.20;;;;;;2560901;54;21521;-82
2022/12/31 10:29:36;;;;;;;1.33;0.55;;;20.40;74.50;;;;;;2561527;54;21053;-85
2022/12/31 10:32:18;;;;;;;1.30;0.50;;;20.40;75.20;;;;;;2560449;54;21511;-84
2022/12/31 10:37:30;;;;;;;1.92;0.62;;;20.50;74.30;;;;;;2560134;54;20969;-82
2022/12/31 10:43:48;;;;;;;2.50;0.70;;;20.50;73.20;;;;;;2560406;54;21092;-81
2022/12/31 10:46:43;;;;;;;1.40;0.50;;;20.60;73.10;;;;;;2319250;55;20934;-85
2022/12/31 10:55:38;;;;;;;1.15;0.50;;;20.70;74.50;;;;;;2559763;54;20934;-85
2022/12/31 10:59:54;;;;;;;1.30;0.40;;;20.80;74.10;;;;;;2320671;55;20943;-85
2022/12/31 11:05:48;;;;;;;1.42;0.60;;;20.90;74.20;;;;;;2526123;54;21000;-84
2022/12/31 11:09:45;;;;;;;1.67;0.60;;;21.00;74.10;;;;;;2527007;54;20953;-84
2022/12/31 11:13:56;;;;;;;2.20;0.68;;;21.10;75.70;;;;;;2528529;54;21491;-83
2022/12/31 11:16:50;;;;;;;1.35;0.55;;;21.30;74.30;;;;;;2528333;54;20940;-83
2022/12/31 11:20:54;;;;;;;1.17;0.50;;;21.40;76.80;;;;;;2527832;54;20965;-84
2022/12/31 11:23:44;;;;;;;1.52;0.50;;;21.50;76.50;;;;;;2294821;54;20945;-84
2022/12/31 11:32:41;;;;;;;0.90;0.43;;;21.60;75.20;;;;;;2294590;54;21020;-84
2022/12/31 11:36:58;;;;;;;1.00;0.37;;;21.80;74.50;;;;;;2528587;54;20938;-83
2022/12/31 11:42:03;;;;;;;1.05;0.37;;;21.90;74.60;;;;;;2295488;54;21739;-84
2022/12/31 11:44:41;;;;;;;1.37;0.40;;;22.10;74.20;;;;;;2296114;54;21732;-84
2022/12/31 11:50:19;;;;;;;1.55;0.50;;;22.10;75.60;;;;;;2267676;54;1763840;-84
2022/12/31 11:57:37;;;;;;;1.15;0.40;;;22.10;72.90;;;;;;2529548;54;20961;-85
2022/12/31 12:00:21;;;;;;;0.25;0.20;;;22.20;73.10;;;;;;2530209;54;20905;-84
2022/12/31 12:02:56;;;;;;;1.00;0.50;;;22.20;73.70;;;;;;2527896;54;21541;-83
2022/12/31 12:05:23;;;;;;;1.02;0.40;;;22.20;75.00;;;;;;2297520;55;20936;-83
2022/12/31 12:07:49;;;;;;;1.27;0.55;;;22.20;74.90;;;;;;2295737;54;20973;-85
2022/12/31 12:10:44;;;;;;;1.45;0.50;;;22.20;75.00;;;;;;2294879;54;20960;-85
2022/12/31 12:13:32;;;;;;;1.30;0.50;;;22.20;72.60;;;;;;2529776;54;20945;-84
2022/12/31 12:16:00;;;;;;;2.37;0.73;;;22.20;74.40;;;;;;2530041;54;21219;-85
2022/12/31 12:18:49;;;;;;;1.30;0.60;;;22.20;74.50;;;;;;2296316;55;20961;-85
2022/12/31 12:21:17;;;;;;;1.40;0.57;;;22.20;72.60;;;;;;2528601;54;21017;-84
2022/12/31 12:24:04;;;;;;;0.62;0.37;;;22.20;74.30;;;;;;2295533;55;22770;-84
2022/12/31 12:26:40;;;;;;;1.40;0.50;;;22.20;72.40;;;;;;2530102;54;20961;-83
2022/12/31 12:32:38;;;;;;;1.35;0.50;;;22.20;72.60;;;;;;2529180;54;20945;-84
2022/12/31 12:35:15;;;;;;;1.02;0.40;;;22.20;71.90;;;;;;2528275;54;21072;-84
2022/12/31 12:37:42;;;;;;;0.95;0.47;;;22.20;72.60;;;;;;2295398;55;21021;-85
2022/12/31 12:40:22;;;;;;;1.42;0.60;;;22.20;74.30;;;;;;2527112;54;21967;-83
2022/12/31 12:42:51;;;;;;;2.37;0.60;;;22.20;72.20;;;;;;2529009;53;21050;-83
2022/12/31 12:45:25;;;;;;;1.45;0.50;;;22.10;74.10;;;;;;2528885;54;20897;-84
2022/12/31 12:48:00;;;;;;;1.98;0.62;;;22.10;72.80;;;;;;2295797;55;20955;-84
2022/12/31 12:50:42;;;;;;;2.25;0.60;;;22.20;73.40;;;;;;2321672;55;20919;-84
2022/12/31 12:53:36;;;;;;;1.90;0.68;;;22.20;72.00;;;;;;2561731;54;21446;-84
2022/12/31 12:56:21;;;;;;;1.95;0.50;;;22.20;72.00;;;;;;2561809;54;20898;-84
2022/12/31 13:00:28;;;;;;;1.23;0.43;;;22.20;72.20;;;;;;2562228;54;20970;-85
2022/12/31 13:03:25;;;;;;;1.17;0.37;;;22.20;73.40;;;;;;2561944;54;20954;-83
2022/12/31 13:06:05;;;;;;;0.90;0.40;;;22.20;71.70;;;;;;2548006;54;20986;-83
2022/12/31 13:09:04;;;;;;;0.62;0.30;;;22.20;73.80;;;;;;2561989;54;20918;-83
2022/12/31 13:13:23;;;;;;;1.35;0.60;;;22.10;71.50;;;;;;2561012;54;20919;-83
2022/12/31 13:16:09;;;;;;;1.30;0.52;;;22.20;72.00;;;;;;2534630;54;20916;-84
2022/12/31 13:18:57;;;;;;;1.10;0.47;;;22.20;72.20;;;;;;2321161;55;20922;-83
2022/12/31 13:21:45;;;;;;;0.93;0.40;;;22.20;73.40;;;;;;2325264;55;20922;-84
2022/12/31 13:24:22;;;;;;;1.33;0.40;;;22.20;72.60;;;;;;2561448;54;21002;-84
2022/12/31 13:27:05;;;;;;;1.02;0.40;;;22.20;73.00;;;;;;2321770;55;20946;-84
2022/12/31 13:29:34;;;;;;;0.47;0.30;;;22.20;73.20;;;;;;2308187;55;20937;-84
2022/12/31 13:32:02;;;;;;;0.50;0.30;;;22.20;73.30;;;;;;2318120;55;20910;-83
2022/12/31 13:34:30;;;;;;;0.57;0.30;;;22.20;73.70;;;;;;2563304;54;20926;-84
2022/12/31 13:36:58;;;;;;;0.80;0.32;;;22.20;73.60;;;;;;2563731;54;20926;-84
2022/12/31 13:39:26;;;;;;;0.77;0.32;;;22.10;73.70;;;;;;2534989;54;20934;-84
2022/12/31 13:42:12;;;;;;;0.85;0.30;;;22.20;73.70;;;;;;2529551;54;21045;-83
2022/12/31 13:45:08;;;;;;;1.77;0.55;;;22.10;72.20;;;;;;2529620;53;20980;-83
2022/12/31 13:47:43;;;;;;;1.75;0.50;;;22.10;72.70;;;;;;2294259;53;20946;-84
2022/12/31 13:50:20;;;;;;;1.05;0.40;;;22.10;72.80;;;;;;2528363;54;21425;-83
2022/12/31 13:53:25;;;;;;;1.35;0.50;;;22.20;72.20;;;;;;2528443;54;21037;-83
2022/12/31 13:55:58;;;;;;;2.00;0.50;;;22.10;72.90;;;;;;2528541;54;20925;-83
2022/12/31 13:58:44;;;;;;;;;;;22.20;72.80;;;;;;2532288;54;20926;-83
2022/12/31 14:04:13;;;;;;;0.80;0.40;;;22.10;71.00;;;;;;2527656;54;20396;-83
2022/12/31 14:06:59;;;;;;;0.80;0.40;;;22.10;71.20;;;;;;2529245;54;20918;-85
2022/12/31 14:09:28;;;;;;;0.57;0.30;;;22.10;72.00;;;;;;2529614;54;20942;-84
2022/12/31 14:12:48;;;;;;;1.10;0.35;;;22.20;73.50;;;;;;2561776;53;21022;-84
2022/12/31 14:15:25;;;;;;;1.62;0.50;;;22.10;70.50;;;;;;2561920;53;21923;-84
2022/12/31 14:18:47;;;;;;;0.70;0.40;;;22.00;73.00;;;;;;2561709;53;20939;-85
2022/12/31 14:21:20;;;;;;;0.62;0.30;;;22.00;70.60;;;;;;2562207;53;21807;-84
2022/12/31 14:24:51;;;;;;;0.90;0.30;;;22.00;73.20;;;;;;2561876;53;21768;-85
2022/12/31 14:27:28;;;;;;;1.33;0.50;;;22.00;72.70;;;;;;2561496;53;20944;-83
2022/12/31 14:30:22;;;;;;;0.90;0.35;;;21.90;72.70;;;;;;2322435;54;20923;-84
2022/12/31 14:36:31;;;;;;;0.68;0.30;;;21.90;72.20;;;;;;2560058;53;22213;-84
2022/12/31 14:42:31;;;;;;;1.27;0.50;;;21.90;70.80;;;;;;2300496;54;21022;-85
2022/12/31 14:46:56;;;;;;;0.62;0.30;;;21.90;71.00;;;;;;2561972;53;20965;-84
2022/12/31 14:49:41;;;;;;;1.20;0.40;;;21.80;70.50;;;;;;2561990;53;20987;-85
2022/12/31 14:52:33;;;;;;;0.85;0.40;;;21.80;71.40;;;;;;2561648;53;20923;-83
2022/12/31 14:56:05;;;;;;;1.65;0.50;;;21.70;71.10;;;;;;2561455;53;21318;-82
2022/12/31 14:58:36;;;;;;;1.17;0.37;;;21.70;70.10;;;;;;2531019;54;20970;-82
2022/12/31 15:01:17;;;;;;;1.27;0.45;;;21.70;73.10;;;;;;2560853;53;20943;-81
2022/12/31 15:03:44;;;;;;;1.20;0.43;;;21.70;72.50;;;;;;2561369;53;20934;-82
2022/12/31 15:06:51;;;;;;;1.75;0.68;;;21.60;73.20;;;;;;2561466;53;21498;-83
2022/12/31 15:10:21;;;;;;;1.37;0.52;;;21.60;70.40;;;;;;2322018;53;20927;-85
2022/12/31 15:13:05;;;;;;;0.80;0.37;;;21.60;70.30;;;;;;2561275;53;21019;-84
2022/12/31 15:19:03;;;;;;;0.57;0.32;;;21.60;71.90;;;;;;2322505;53;20937;-84
2022/12/31 15:22:06;;;;;;;0.70;0.35;;;21.60;70.20;;;;;;2561475;53;20903;-84
2022/12/31 15:24:33;;;;;;;1.35;0.40;;;21.50;70.70;;;;;;2562500;53;20916;-85
2022/12/31 15:27:04;;;;;;;1.27;0.50;;;21.60;73.30;;;;;;2323729;53;21799;-85
2022/12/31 15:29:40;;;;;;;1.20;0.40;;;21.50;72.20;;;;;;2300402;55;21238;-84